createdAt,value
2017-07-21T00:00:43.799Z,992.34
2017-07-21T00:01:43.828Z,992.34
2017-07-21T00:02:43.863Z,992.34
2017-07-21T00:03:43.891Z,992.35
2017-07-21T00:04:43.919Z,992.34
2017-07-21T00:05:43.947Z,992.36
2017-07-21T00:06:43.980Z,992.4
2017-07-21T00:07:44.007Z,992.37
2017-07-21T00:08:44.039Z,992.39
2017-07-21T00:09:44.066Z,992.39
2017-07-21T00:10:44.094Z,992.38
2017-07-21T00:11:44.123Z,992.38
2017-07-21T00:12:44.162Z,992.38
2017-07-21T00:13:44.186Z,992.38
2017-07-21T00:14:44.216Z,992.38
2017-07-21T00:15:44.243Z,992.41
2017-07-21T00:16:44.273Z,992.38
2017-07-21T00:17:44.309Z,992.39
2017-07-21T00:18:44.334Z,992.38
2017-07-21T00:19:44.363Z,992.37
2017-07-21T00:20:44.411Z,992.42
2017-07-21T00:21:44.423Z,992.39
2017-07-21T00:22:44.452Z,992.39
2017-07-21T00:23:44.482Z,992.41
2017-07-21T00:24:44.511Z,992.39
2017-07-21T00:25:44.536Z,992.39
2017-07-21T00:26:44.568Z,992.43
2017-07-21T00:27:44.622Z,992.43
2017-07-21T00:28:44.629Z,992.42
2017-07-21T00:29:44.659Z,992.43
2017-07-21T00:30:44.683Z,992.43
2017-07-21T00:31:44.717Z,992.45
2017-07-21T00:32:44.749Z,992.41
2017-07-21T00:33:44.780Z,992.45
2017-07-21T00:34:44.807Z,992.4
2017-07-21T00:35:44.836Z,992.42
2017-07-21T00:36:44.865Z,992.41
2017-07-21T00:37:44.893Z,992.43
2017-07-21T00:38:44.926Z,992.38
2017-07-21T00:39:44.951Z,992.38
2017-07-21T00:40:44.985Z,992.38
2017-07-21T00:41:45.013Z,992.38
2017-07-21T00:42:45.042Z,992.39
2017-07-21T00:43:45.074Z,992.37
2017-07-21T00:44:45.103Z,992.36
2017-07-21T00:45:45.132Z,992.41
2017-07-21T00:46:45.160Z,992.41
2017-07-21T00:47:45.441Z,992.37
2017-07-21T00:48:45.225Z,992.38
2017-07-21T00:49:45.251Z,992.37
2017-07-21T00:50:45.280Z,992.37
2017-07-21T00:51:45.309Z,992.41
2017-07-21T00:52:45.588Z,992.39
2017-07-21T00:53:45.371Z,992.41
2017-07-21T00:54:45.402Z,992.4
2017-07-21T00:55:45.428Z,992.4
2017-07-21T00:56:45.457Z,992.39
2017-07-21T00:57:45.785Z,992.42
2017-07-21T00:58:45.514Z,992.41
2017-07-21T00:59:45.548Z,992.44
2017-07-21T01:00:45.577Z,992.42
2017-07-21T01:01:45.606Z,992.46
2017-07-21T01:02:45.885Z,992.44
2017-07-21T01:03:45.663Z,992.43
2017-07-21T01:04:45.692Z,992.46
2017-07-21T01:05:45.721Z,992.42
2017-07-21T01:06:45.752Z,992.43
2017-07-21T01:07:46.033Z,992.43
2017-07-21T01:08:45.811Z,992.4
2017-07-21T01:09:45.840Z,992.45
2017-07-21T01:10:45.868Z,992.42
2017-07-21T01:11:45.897Z,992.4
2017-07-21T01:12:46.230Z,992.4
2017-07-21T01:13:45.958Z,992.41
2017-07-21T01:14:45.988Z,992.38
2017-07-21T01:15:46.018Z,992.38
2017-07-21T01:16:46.045Z,992.35
2017-07-21T01:17:46.079Z,992.38
2017-07-21T01:18:46.107Z,992.39
2017-07-21T01:19:46.136Z,992.42
2017-07-21T01:20:46.164Z,992.42
2017-07-21T01:21:46.194Z,992.39
2017-07-21T01:22:46.228Z,992.41
2017-07-21T01:23:46.256Z,992.41
2017-07-21T01:24:46.285Z,992.41
2017-07-21T01:25:46.309Z,992.42
2017-07-21T01:26:46.378Z,992.39
2017-07-21T01:27:46.371Z,992.44
2017-07-21T01:28:46.400Z,992.38
2017-07-21T01:29:46.432Z,992.41
2017-07-21T01:30:46.464Z,992.38
2017-07-21T01:31:46.490Z,992.43
2017-07-21T01:32:46.519Z,992.45
2017-07-21T01:33:46.547Z,992.43
2017-07-21T01:34:46.576Z,992.43
2017-07-21T01:35:46.610Z,992.44
2017-07-21T01:36:46.638Z,992.43
2017-07-21T01:37:46.667Z,992.43
2017-07-21T01:38:46.696Z,992.4
2017-07-21T01:39:46.725Z,992.39
2017-07-21T01:40:46.754Z,992.41
2017-07-21T01:41:46.786Z,992.39
2017-07-21T01:42:46.815Z,992.36
2017-07-21T01:43:46.841Z,992.29
2017-07-21T01:44:46.872Z,992.34
2017-07-21T01:45:46.901Z,992.3
2017-07-21T01:46:46.929Z,992.26
2017-07-21T01:47:46.962Z,992.27
2017-07-21T01:48:46.993Z,992.25
2017-07-21T01:49:47.021Z,992.3
2017-07-21T01:50:47.049Z,992.24
2017-07-21T01:51:47.078Z,992.32
2017-07-21T01:52:47.107Z,992.31
2017-07-21T01:53:47.136Z,992.36
2017-07-21T01:54:47.169Z,992.38
2017-07-21T01:55:47.197Z,992.33
2017-07-21T01:56:47.224Z,992.36
2017-07-21T01:57:47.252Z,992.34
2017-07-21T01:58:47.284Z,992.34
2017-07-21T01:59:47.313Z,992.34
2017-07-21T02:00:47.341Z,992.33
2017-07-21T02:01:47.375Z,992.28
2017-07-21T02:02:47.404Z,992.28
2017-07-21T02:03:47.432Z,992.23
2017-07-21T02:04:47.462Z,992.23
2017-07-21T02:05:47.489Z,992.24
2017-07-21T02:06:47.524Z,992.21
2017-07-21T02:07:47.553Z,992.2
2017-07-21T02:08:47.581Z,992.19
2017-07-21T02:09:47.610Z,992.22
2017-07-21T02:10:47.634Z,992.22
2017-07-21T02:11:47.663Z,992.23
2017-07-21T02:12:47.699Z,992.28
2017-07-21T02:13:47.728Z,992.31
2017-07-21T02:14:47.757Z,992.3
2017-07-21T02:15:47.789Z,992.32
2017-07-21T02:16:47.815Z,992.28
2017-07-21T02:17:47.846Z,992.3
2017-07-21T02:18:47.873Z,992.33
2017-07-21T02:19:47.904Z,992.31
2017-07-21T02:20:47.935Z,992.3
2017-07-21T02:21:47.963Z,992.29
2017-07-21T02:22:47.993Z,992.26
2017-07-21T02:23:48.016Z,992.27
2017-07-21T02:24:48.050Z,992.25
2017-07-21T02:25:48.082Z,992.24
2017-07-21T02:26:48.111Z,992.26
2017-07-21T02:27:48.142Z,992.27
2017-07-21T02:28:48.170Z,992.26
2017-07-21T02:29:48.201Z,992.27
2017-07-21T02:30:48.226Z,992.25
2017-07-21T02:31:48.256Z,992.29
2017-07-21T02:32:48.284Z,992.26
2017-07-21T02:33:48.317Z,992.24
2017-07-21T02:34:48.342Z,992.23
2017-07-21T02:35:48.375Z,992.24
2017-07-21T02:36:48.405Z,992.25
2017-07-21T02:37:48.432Z,992.26
2017-07-21T02:38:48.462Z,992.28
2017-07-21T02:39:48.494Z,992.23
2017-07-21T02:40:48.524Z,992.25
2017-07-21T02:41:48.551Z,992.21
2017-07-21T02:42:48.581Z,992.22
2017-07-21T02:43:48.606Z,992.24
2017-07-21T02:44:48.639Z,992.24
2017-07-21T02:45:48.668Z,992.2
2017-07-21T02:46:48.698Z,992.2
2017-07-21T02:47:48.727Z,992.17
2017-07-21T02:48:49.057Z,992.22
2017-07-21T02:49:48.785Z,992.21
2017-07-21T02:50:48.817Z,992.23
2017-07-21T02:51:48.844Z,992.24
2017-07-21T02:52:48.875Z,992.24
2017-07-21T02:53:49.153Z,992.26
2017-07-21T02:54:48.935Z,992.3
2017-07-21T02:55:48.964Z,992.28
2017-07-21T02:56:48.990Z,992.3
2017-07-21T02:57:49.022Z,992.29
2017-07-21T02:58:49.301Z,992.27
2017-07-21T02:59:49.080Z,992.27
2017-07-21T03:00:49.107Z,992.28
2017-07-21T03:01:49.137Z,992.27
2017-07-21T03:02:49.166Z,992.26
2017-07-21T03:03:49.449Z,992.28
2017-07-21T03:04:49.227Z,992.29
2017-07-21T03:05:49.254Z,992.29
2017-07-21T03:06:49.285Z,992.26
2017-07-21T03:07:49.314Z,992.25
2017-07-21T03:08:49.642Z,992.26
2017-07-21T03:09:49.371Z,992.28
2017-07-21T03:10:49.400Z,992.28
2017-07-21T03:11:49.432Z,992.26
2017-07-21T03:12:49.461Z,992.31
2017-07-21T03:13:49.742Z,992.27
2017-07-21T03:14:49.520Z,992.27
2017-07-21T03:15:49.549Z,992.32
2017-07-21T03:16:49.577Z,992.3
2017-07-21T03:17:49.606Z,992.29
2017-07-21T03:18:49.882Z,992.3
2017-07-21T03:19:49.667Z,992.29
2017-07-21T03:20:49.697Z,992.26
2017-07-21T03:21:49.726Z,992.26
2017-07-21T03:22:49.754Z,992.33
2017-07-21T03:23:50.037Z,992.32
2017-07-21T03:24:49.812Z,992.32
2017-07-21T03:25:49.840Z,992.33
2017-07-21T03:26:49.869Z,992.33
2017-07-21T03:27:49.903Z,992.34
2017-07-21T03:28:50.225Z,992.34
2017-07-21T03:29:49.961Z,992.32
2017-07-21T03:30:49.990Z,992.34
2017-07-21T03:31:50.018Z,992.33
2017-07-21T03:32:50.047Z,992.31
2017-07-21T03:33:50.076Z,992.3
2017-07-21T03:34:50.105Z,992.34
2017-07-21T03:35:50.134Z,992.36
2017-07-21T03:36:50.158Z,992.34
2017-07-21T03:37:50.195Z,992.35
2017-07-21T03:38:50.223Z,992.37
2017-07-21T03:39:50.248Z,992.39
2017-07-21T03:40:50.281Z,992.33
2017-07-21T03:41:50.310Z,992.32
2017-07-21T03:42:50.339Z,992.31
2017-07-21T03:43:50.367Z,992.32
2017-07-21T03:44:50.426Z,992.31
2017-07-21T03:45:50.421Z,992.29
2017-07-21T03:46:50.454Z,992.34
2017-07-21T03:47:50.487Z,992.32
2017-07-21T03:48:50.511Z,992.31
2017-07-21T03:49:50.544Z,992.28
2017-07-21T03:50:50.574Z,992.32
2017-07-21T03:51:50.616Z,992.29
2017-07-21T03:52:50.630Z,992.33
2017-07-21T03:53:50.655Z,992.29
2017-07-21T03:54:50.688Z,992.32
2017-07-21T03:55:50.721Z,992.3
2017-07-21T03:56:50.749Z,992.3
2017-07-21T03:57:50.779Z,992.31
2017-07-21T03:58:50.807Z,992.32
2017-07-21T03:59:50.837Z,992.29
2017-07-21T04:00:50.865Z,992.31
2017-07-21T04:01:50.895Z,992.34
2017-07-21T04:02:50.923Z,992.34
2017-07-21T04:03:50.953Z,992.35
2017-07-21T04:04:50.981Z,992.34
2017-07-21T04:05:51.011Z,992.34
2017-07-21T04:06:51.332Z,992.36
2017-07-21T04:07:51.072Z,992.35
2017-07-21T04:08:51.100Z,992.35
2017-07-21T04:09:51.135Z,992.34
2017-07-21T04:10:51.158Z,992.34
2017-07-21T04:11:51.189Z,992.35
2017-07-21T04:12:51.217Z,992.33
2017-07-21T04:13:51.244Z,992.35
2017-07-21T04:14:51.278Z,992.33
2017-07-21T04:15:51.302Z,992.35
2017-07-21T04:16:51.327Z,992.32
2017-07-21T04:17:51.363Z,992.35
2017-07-21T04:18:51.392Z,992.36
2017-07-21T04:19:51.417Z,992.36
2017-07-21T04:20:51.450Z,992.33
2017-07-21T04:21:51.474Z,992.38
2017-07-21T04:22:51.508Z,992.36
2017-07-21T04:23:51.536Z,992.39
2017-07-21T04:24:51.566Z,992.39
2017-07-21T04:25:51.594Z,992.39
2017-07-21T04:26:51.623Z,992.37
2017-07-21T04:27:51.652Z,992.39
2017-07-21T04:28:51.684Z,992.37
2017-07-21T04:29:51.714Z,992.42
2017-07-21T04:30:51.741Z,992.42
2017-07-21T04:31:51.772Z,992.42
2017-07-21T04:32:51.795Z,992.37
2017-07-21T04:33:51.831Z,992.37
2017-07-21T04:34:51.857Z,992.32
2017-07-21T04:35:51.887Z,992.36
2017-07-21T04:36:51.915Z,992.33
2017-07-21T04:37:51.943Z,992.34
2017-07-21T04:38:51.972Z,992.3
2017-07-21T04:39:52.002Z,992.34
2017-07-21T04:40:52.034Z,992.39
2017-07-21T04:41:52.059Z,992.41
2017-07-21T04:42:52.092Z,992.42
2017-07-21T04:43:52.118Z,992.4
2017-07-21T04:44:52.149Z,992.42
2017-07-21T04:45:52.179Z,992.41
2017-07-21T04:46:52.207Z,992.44
2017-07-21T04:47:52.236Z,992.43
2017-07-21T04:48:52.265Z,992.4
2017-07-21T04:49:52.295Z,992.45
2017-07-21T04:50:52.323Z,992.41
2017-07-21T04:51:52.352Z,992.39
2017-07-21T04:52:52.380Z,992.38
2017-07-21T04:53:52.414Z,992.41
2017-07-21T04:54:52.443Z,992.37
2017-07-21T04:55:52.471Z,992.39
2017-07-21T04:56:52.500Z,992.37
2017-07-21T04:57:52.526Z,992.4
2017-07-21T04:58:52.553Z,992.41
2017-07-21T04:59:52.587Z,992.39
2017-07-21T05:00:52.614Z,992.41
2017-07-21T05:01:52.642Z,992.38
2017-07-21T05:02:52.672Z,992.41
2017-07-21T05:03:52.697Z,992.35
2017-07-21T05:04:52.730Z,992.37
2017-07-21T05:05:52.759Z,992.38
2017-07-21T05:06:52.791Z,992.34
2017-07-21T05:07:52.818Z,992.33
2017-07-21T05:08:52.849Z,992.26
2017-07-21T05:09:52.878Z,992.28
2017-07-21T05:10:52.907Z,992.32
2017-07-21T05:11:52.935Z,992.31
2017-07-21T05:12:52.965Z,992.33
2017-07-21T05:13:52.994Z,992.3
2017-07-21T05:14:53.022Z,992.32
2017-07-21T05:15:53.051Z,992.34
2017-07-21T05:16:53.080Z,992.32
2017-07-21T05:17:53.104Z,992.31
2017-07-21T05:18:53.133Z,992.34
2017-07-21T05:19:53.165Z,992.33
2017-07-21T05:20:53.196Z,992.31
2017-07-21T05:21:53.225Z,992.31
2017-07-21T05:22:53.257Z,992.31
2017-07-21T05:23:53.286Z,992.25
2017-07-21T05:24:53.614Z,992.29
2017-07-21T05:25:53.344Z,992.26
2017-07-21T05:26:53.368Z,992.27
2017-07-21T05:27:53.402Z,992.29
2017-07-21T05:28:53.431Z,992.29
2017-07-21T05:29:53.758Z,992.27
2017-07-21T05:30:53.488Z,992.3
2017-07-21T05:31:53.512Z,992.29
2017-07-21T05:32:53.541Z,992.25
2017-07-21T05:33:53.574Z,992.26
2017-07-21T05:34:53.858Z,992.29
2017-07-21T05:35:53.637Z,992.29
2017-07-21T05:36:53.665Z,992.24
2017-07-21T05:37:53.694Z,992.28
2017-07-21T05:38:53.723Z,992.28
2017-07-21T05:39:53.999Z,992.3
2017-07-21T05:40:53.776Z,992.3
2017-07-21T05:41:53.809Z,992.27
2017-07-21T05:42:53.839Z,992.29
2017-07-21T05:43:53.867Z,992.29
2017-07-21T05:44:54.198Z,992.29
2017-07-21T05:45:53.921Z,992.23
2017-07-21T05:46:53.953Z,992.25
2017-07-21T05:47:53.985Z,992.28
2017-07-21T05:48:54.011Z,992.26
2017-07-21T05:49:54.042Z,992.24
2017-07-21T05:50:54.076Z,992.28
2017-07-21T05:51:54.100Z,992.29
2017-07-21T05:52:54.130Z,992.34
2017-07-21T05:53:54.159Z,992.33
2017-07-21T05:54:54.187Z,992.31
2017-07-21T05:55:54.216Z,992.28
2017-07-21T05:56:54.246Z,992.27
2017-07-21T05:57:54.274Z,992.27
2017-07-21T05:58:54.303Z,992.3
2017-07-21T05:59:54.332Z,992.32
2017-07-21T06:00:54.363Z,992.34
2017-07-21T06:01:54.390Z,992.28
2017-07-21T06:02:54.419Z,992.3
2017-07-21T06:03:54.447Z,992.27
2017-07-21T06:04:54.498Z,992.25
2017-07-21T06:05:54.512Z,992.27
2017-07-21T06:06:54.537Z,992.27
2017-07-21T06:07:54.566Z,992.23
2017-07-21T06:08:54.595Z,992.21
2017-07-21T06:09:54.630Z,992.23
2017-07-21T06:10:54.653Z,992.18
2017-07-21T06:11:54.681Z,992.19
2017-07-21T06:12:54.710Z,992.19
2017-07-21T06:13:54.740Z,992.18
2017-07-21T06:14:54.769Z,992.2
2017-07-21T06:15:54.797Z,992.17
2017-07-21T06:16:54.827Z,992.17
2017-07-21T06:17:54.855Z,992.22
2017-07-21T06:18:54.887Z,992.21
2017-07-21T06:19:54.916Z,992.2
2017-07-21T06:20:54.944Z,992.18
2017-07-21T06:21:54.973Z,992.16
2017-07-21T06:22:55.003Z,992.18
2017-07-21T06:23:55.034Z,992.2
2017-07-21T06:24:55.060Z,992.2
2017-07-21T06:25:55.089Z,992.22
2017-07-21T06:26:55.118Z,992.21
2017-07-21T06:27:55.147Z,992.22
2017-07-21T06:28:55.175Z,992.25
2017-07-21T06:29:55.205Z,992.26
2017-07-21T06:30:55.238Z,992.21
2017-07-21T06:31:55.266Z,992.25
2017-07-21T06:32:55.296Z,992.26
2017-07-21T06:33:55.324Z,992.23
2017-07-21T06:34:55.353Z,992.24
2017-07-21T06:35:55.379Z,992.27
2017-07-21T06:36:55.411Z,992.25
2017-07-21T06:37:55.439Z,992.25
2017-07-21T06:38:55.468Z,992.22
2017-07-21T06:39:55.496Z,992.25
2017-07-21T06:40:55.522Z,992.25
2017-07-21T06:41:55.553Z,992.24
2017-07-21T06:42:55.583Z,992.23
2017-07-21T06:43:55.616Z,992.26
2017-07-21T06:44:55.644Z,992.21
2017-07-21T06:45:55.930Z,992.24
2017-07-21T06:46:55.705Z,992.29
2017-07-21T06:47:55.730Z,992.28
2017-07-21T06:48:55.760Z,992.28
2017-07-21T06:49:55.787Z,992.31
2017-07-21T06:50:56.082Z,992.27
2017-07-21T06:51:55.847Z,992.22
2017-07-21T06:52:55.880Z,992.25
2017-07-21T06:53:55.904Z,992.25
2017-07-21T06:54:55.937Z,992.22
2017-07-21T06:55:56.217Z,992.21
2017-07-21T06:56:55.994Z,992.19
2017-07-21T06:57:56.025Z,992.2
2017-07-21T06:58:56.052Z,992.2
2017-07-21T06:59:56.079Z,992.19
2017-07-21T07:00:56.110Z,992.22
2017-07-21T07:01:56.139Z,992.22
2017-07-21T07:02:56.167Z,992.2
2017-07-21T07:03:56.204Z,992.2
2017-07-21T07:04:56.229Z,992.22
2017-07-21T07:05:56.258Z,992.18
2017-07-21T07:06:56.286Z,992.23
2017-07-21T07:07:56.314Z,992.22
2017-07-21T07:08:56.344Z,992.23
2017-07-21T07:09:56.374Z,992.22
2017-07-21T07:10:56.403Z,992.2
2017-07-21T07:11:56.431Z,992.23
2017-07-21T07:12:56.459Z,992.24
2017-07-21T07:13:56.492Z,992.23
2017-07-21T07:14:56.521Z,992.2
2017-07-21T07:15:56.551Z,992.2
2017-07-21T07:16:56.578Z,992.2
2017-07-21T07:17:56.608Z,992.19
2017-07-21T07:18:56.637Z,992.18
2017-07-21T07:19:56.662Z,992.16
2017-07-21T07:20:56.692Z,992.2
2017-07-21T07:21:56.724Z,992.16
2017-07-21T07:22:56.753Z,992.19
2017-07-21T07:23:56.783Z,992.19
2017-07-21T07:24:56.813Z,992.16
2017-07-21T07:25:56.843Z,992.17
2017-07-21T07:26:56.871Z,992.16
2017-07-21T07:27:56.901Z,992.18
2017-07-21T07:28:56.928Z,992.23
2017-07-21T07:29:56.958Z,992.18
2017-07-21T07:30:56.986Z,992.2
2017-07-21T07:31:57.014Z,992.17
2017-07-21T07:32:57.049Z,992.18
2017-07-21T07:33:57.072Z,992.18
2017-07-21T07:34:57.106Z,992.18
2017-07-21T07:35:57.135Z,992.19
2017-07-21T07:36:57.164Z,992.16
2017-07-21T07:37:57.188Z,992.15
2017-07-21T07:38:57.217Z,992.17
2017-07-21T07:39:57.253Z,992.15
2017-07-21T07:40:57.274Z,992.17
2017-07-21T07:41:57.312Z,992.16
2017-07-21T07:42:57.342Z,992.18
2017-07-21T07:43:57.370Z,992.21
2017-07-21T07:44:57.399Z,992.16
2017-07-21T07:45:57.428Z,992.15
2017-07-21T07:46:57.452Z,992.15
2017-07-21T07:47:57.489Z,992.15
2017-07-21T07:48:57.514Z,992.1
2017-07-21T07:49:57.542Z,992.13
2017-07-21T07:50:57.571Z,992.12
2017-07-21T07:51:57.596Z,992.15
2017-07-21T07:52:57.632Z,992.12
2017-07-21T07:53:57.661Z,992.15
2017-07-21T07:54:57.691Z,992.11
2017-07-21T07:55:57.719Z,992.11
2017-07-21T07:56:57.748Z,992.11
2017-07-21T07:57:57.779Z,992.09
2017-07-21T07:58:57.805Z,992.09
2017-07-21T07:59:57.834Z,992.08
2017-07-21T08:00:57.860Z,992.11
2017-07-21T08:01:57.898Z,992.07
2017-07-21T08:02:57.924Z,992.08
2017-07-21T08:03:57.953Z,992.09
2017-07-21T08:04:57.982Z,992.13
2017-07-21T08:05:58.011Z,992.13
2017-07-21T08:06:58.040Z,992.13
2017-07-21T08:07:58.070Z,992.09
2017-07-21T08:08:58.097Z,992.13
2017-07-21T08:09:58.126Z,992.06
2017-07-21T08:10:58.160Z,992.08
2017-07-21T08:11:58.190Z,992.08
2017-07-21T08:12:58.218Z,992.07
2017-07-21T08:13:58.247Z,992.09
2017-07-21T08:14:58.276Z,992.06
2017-07-21T08:15:58.309Z,992.06
2017-07-21T08:16:58.327Z,992.02
2017-07-21T08:17:58.361Z,992.08
2017-07-21T08:18:58.395Z,992.04
2017-07-21T08:19:58.430Z,992.05
2017-07-21T08:20:58.453Z,992.03
2017-07-21T08:21:58.482Z,992.01
2017-07-21T08:22:58.515Z,991.99
2017-07-21T08:23:58.541Z,991.97
2017-07-21T08:24:58.574Z,991.99
2017-07-21T08:25:58.597Z,991.98
2017-07-21T08:26:58.927Z,991.96
2017-07-21T08:27:58.658Z,991.95
2017-07-21T08:28:58.683Z,991.97
2017-07-21T08:29:58.737Z,991.98
2017-07-21T08:30:58.745Z,991.99
2017-07-21T08:31:59.025Z,991.95
2017-07-21T08:32:58.804Z,991.99
2017-07-21T08:33:58.830Z,991.94
2017-07-21T08:34:58.863Z,991.95
2017-07-21T08:35:58.891Z,991.94
2017-07-21T08:36:59.173Z,991.99
2017-07-21T08:37:58.946Z,991.95
2017-07-21T08:38:58.979Z,991.96
2017-07-21T08:39:59.007Z,991.93
2017-07-21T08:40:59.040Z,991.94
2017-07-21T08:41:59.070Z,991.94
2017-07-21T08:42:59.099Z,991.92
2017-07-21T08:43:59.123Z,991.95
2017-07-21T08:44:59.157Z,991.91
2017-07-21T08:45:59.186Z,991.88
2017-07-21T08:46:59.213Z,991.88
2017-07-21T08:47:59.246Z,991.89
2017-07-21T08:48:59.264Z,991.91
2017-07-21T08:49:59.302Z,991.87
2017-07-21T08:50:59.329Z,991.85
2017-07-21T08:51:59.362Z,991.86
2017-07-21T08:52:59.391Z,991.84
2017-07-21T08:53:59.470Z,991.8
2017-07-21T08:54:59.452Z,991.83
2017-07-21T08:55:59.480Z,991.81
2017-07-21T08:56:59.510Z,991.81
2017-07-21T08:57:59.538Z,991.8
2017-07-21T08:58:59.568Z,991.81
2017-07-21T08:59:59.590Z,991.8
2017-07-21T09:00:59.628Z,991.82
2017-07-21T09:01:59.658Z,991.82
2017-07-21T09:02:59.687Z,991.81
2017-07-21T09:03:59.718Z,991.82
2017-07-21T09:04:59.745Z,991.79
2017-07-21T09:05:59.792Z,991.78
2017-07-21T09:06:59.801Z,991.75
2017-07-21T09:07:59.842Z,991.81
2017-07-21T09:08:59.868Z,991.73
2017-07-21T09:09:59.891Z,991.75
2017-07-21T09:10:59.920Z,991.73
2017-07-21T09:11:59.951Z,991.68
2017-07-21T09:12:59.979Z,991.68
2017-07-21T09:14:00.012Z,991.67
2017-07-21T09:15:00.038Z,991.67
2017-07-21T09:16:00.068Z,991.67
2017-07-21T09:17:00.099Z,991.66
2017-07-21T09:18:00.127Z,991.69
2017-07-21T09:19:00.155Z,991.67
2017-07-21T09:20:00.185Z,991.69
2017-07-21T09:21:00.218Z,991.63
2017-07-21T09:22:00.245Z,991.64
2017-07-21T09:23:00.271Z,991.67
2017-07-21T09:24:00.303Z,991.67
2017-07-21T09:25:00.332Z,991.69
2017-07-21T09:26:00.365Z,991.69
2017-07-21T09:27:00.399Z,991.64
2017-07-21T09:28:00.424Z,991.64
2017-07-21T09:29:00.448Z,991.63
2017-07-21T09:30:00.487Z,991.66
2017-07-21T09:31:00.514Z,991.61
2017-07-21T09:32:00.543Z,991.61
2017-07-21T09:33:00.570Z,991.62
2017-07-21T09:34:00.603Z,991.6
2017-07-21T09:35:00.631Z,991.65
2017-07-21T09:36:00.664Z,991.61
2017-07-21T09:37:00.694Z,991.6
2017-07-21T09:38:00.723Z,991.63
2017-07-21T09:39:00.749Z,991.64
2017-07-21T09:40:00.780Z,991.61
2017-07-21T09:41:00.810Z,991.63
2017-07-21T09:42:00.838Z,991.6
2017-07-21T09:43:00.868Z,991.6
2017-07-21T09:44:00.898Z,991.6
2017-07-21T09:45:00.927Z,991.61
2017-07-21T09:46:00.960Z,991.63
2017-07-21T09:47:00.983Z,991.59
2017-07-21T09:48:01.016Z,991.55
2017-07-21T09:49:01.045Z,991.56
2017-07-21T09:50:01.069Z,991.54
2017-07-21T09:51:01.102Z,991.51
2017-07-21T09:52:01.135Z,991.49
2017-07-21T09:53:01.163Z,991.49
2017-07-21T09:54:01.193Z,991.48
2017-07-21T09:55:01.226Z,991.44
2017-07-21T09:56:01.257Z,991.49
2017-07-21T09:57:01.284Z,991.49
2017-07-21T09:58:01.312Z,991.47
2017-07-21T09:59:01.341Z,991.48
2017-07-21T10:00:01.373Z,991.5
2017-07-21T10:01:01.402Z,991.46
2017-07-21T10:02:01.432Z,991.45
2017-07-21T10:03:01.711Z,991.45
2017-07-21T10:04:01.490Z,991.46
2017-07-21T10:05:01.523Z,991.44
2017-07-21T10:06:01.556Z,991.4
2017-07-21T10:07:01.579Z,991.38
2017-07-21T10:08:01.857Z,991.39
2017-07-21T10:09:01.641Z,991.37
2017-07-21T10:10:01.667Z,991.33
2017-07-21T10:11:01.699Z,991.32
2017-07-21T10:12:01.729Z,991.34
2017-07-21T10:13:02.027Z,991.32
2017-07-21T10:14:01.790Z,991.27
2017-07-21T10:15:01.818Z,991.25
2017-07-21T10:16:01.848Z,991.18
2017-07-21T10:17:01.879Z,991.17
2017-07-21T10:18:02.206Z,991.19
2017-07-21T10:19:01.933Z,991.2
2017-07-21T10:20:01.968Z,991.22
2017-07-21T10:21:01.999Z,991.23
2017-07-21T10:22:02.031Z,991.25
2017-07-21T10:23:02.061Z,991.25
2017-07-21T10:24:02.088Z,991.21
2017-07-21T10:25:02.114Z,991.21
2017-07-21T10:26:02.145Z,991.16
2017-07-21T10:27:02.174Z,991.21
2017-07-21T10:28:02.225Z,991.16
2017-07-21T10:29:02.237Z,991.15
2017-07-21T10:30:02.300Z,991.09
2017-07-21T10:31:02.304Z,991.1
2017-07-21T10:32:02.327Z,991.09
2017-07-21T10:33:02.357Z,991.08
2017-07-21T10:34:02.391Z,991.08
2017-07-21T10:35:02.415Z,991.1
2017-07-21T10:36:02.444Z,991
2017-07-21T10:37:02.478Z,991
2017-07-21T10:38:02.525Z,991.01
2017-07-21T10:39:02.536Z,990.97
2017-07-21T10:40:02.564Z,990.95
2017-07-21T10:41:02.596Z,990.94
2017-07-21T10:42:02.630Z,990.91
2017-07-21T10:43:02.657Z,990.91
2017-07-21T10:44:02.686Z,990.86
2017-07-21T10:45:02.713Z,990.84
2017-07-21T10:46:02.744Z,990.84
2017-07-21T10:47:02.768Z,990.79
2017-07-21T10:48:02.808Z,990.8
2017-07-21T10:49:02.834Z,990.77
2017-07-21T10:50:02.864Z,990.8
2017-07-21T10:51:02.896Z,990.79
2017-07-21T10:52:02.925Z,990.76
2017-07-21T10:53:02.954Z,990.77
2017-07-21T10:54:02.983Z,990.71
2017-07-21T10:55:03.015Z,990.75
2017-07-21T10:56:03.045Z,990.72
2017-07-21T10:57:03.074Z,990.76
2017-07-21T10:58:03.101Z,990.71
2017-07-21T10:59:03.138Z,990.71
2017-07-21T11:00:03.163Z,990.73
2017-07-21T11:01:03.196Z,990.71
2017-07-21T11:02:03.226Z,990.72
2017-07-21T11:03:03.254Z,990.69
2017-07-21T11:04:03.279Z,990.65
2017-07-21T11:05:03.322Z,990.65
2017-07-21T11:06:03.344Z,990.68
2017-07-21T11:07:03.381Z,990.68
2017-07-21T11:08:03.405Z,990.69
2017-07-21T11:09:03.436Z,990.68
2017-07-21T11:10:03.469Z,990.64
2017-07-21T11:11:03.497Z,990.67
2017-07-21T11:12:03.524Z,990.67
2017-07-21T11:13:03.549Z,990.62
2017-07-21T11:14:03.588Z,990.61
2017-07-21T11:15:03.614Z,990.6
2017-07-21T11:16:03.645Z,990.63
2017-07-21T11:17:03.678Z,990.66
2017-07-21T11:18:03.709Z,990.69
2017-07-21T11:19:03.736Z,990.69
2017-07-21T11:20:03.780Z,990.68
2017-07-21T11:21:03.797Z,990.69
2017-07-21T11:22:03.826Z,990.68
2017-07-21T11:23:03.859Z,990.69
2017-07-21T11:24:03.888Z,990.69
2017-07-21T11:25:03.917Z,990.66
2017-07-21T11:26:03.950Z,990.68
2017-07-21T11:27:03.977Z,990.67
2017-07-21T11:28:04.006Z,990.68
2017-07-21T11:29:04.045Z,990.67
2017-07-21T11:30:04.070Z,990.65
2017-07-21T11:31:04.093Z,990.63
2017-07-21T11:32:04.130Z,990.62
2017-07-21T11:33:04.157Z,990.6
2017-07-21T11:34:04.192Z,990.6
2017-07-21T11:35:04.221Z,990.61
2017-07-21T11:36:04.250Z,990.63
2017-07-21T11:37:04.283Z,990.58
2017-07-21T11:38:04.312Z,990.61
2017-07-21T11:39:04.340Z,990.58
2017-07-21T11:40:04.369Z,990.58
2017-07-21T11:41:04.402Z,990.57
2017-07-21T11:42:04.435Z,990.55
2017-07-21T11:43:04.465Z,990.56
2017-07-21T11:44:04.497Z,990.58
2017-07-21T11:45:04.525Z,990.56
2017-07-21T11:46:04.554Z,990.55
2017-07-21T11:47:04.588Z,990.57
2017-07-21T11:48:04.614Z,990.6
2017-07-21T11:49:04.653Z,990.65
2017-07-21T11:50:04.680Z,990.68
2017-07-21T11:51:04.709Z,990.65
2017-07-21T11:52:04.739Z,990.62
2017-07-21T11:53:04.769Z,990.52
2017-07-21T11:54:04.800Z,990.51
2017-07-21T11:55:04.834Z,990.64
2017-07-21T11:56:04.861Z,990.48
2017-07-21T11:57:04.890Z,990.46
2017-07-21T11:58:04.922Z,990.52
2017-07-21T11:59:05.209Z,990.46
2017-07-21T12:00:04.985Z,990.61
2017-07-21T12:01:05.015Z,990.48
2017-07-21T12:02:05.046Z,990.47
2017-07-21T12:03:05.079Z,990.62
2017-07-21T12:04:05.113Z,990.56
2017-07-21T12:05:05.142Z,990.57
2017-07-21T12:06:05.174Z,990.41
2017-07-21T12:07:05.206Z,990.46
2017-07-21T12:08:05.236Z,990.61
2017-07-21T12:09:05.267Z,990.59
2017-07-21T12:10:05.301Z,990.47
2017-07-21T12:11:05.334Z,990.61
2017-07-21T12:12:05.362Z,990.45
2017-07-21T12:13:05.397Z,990.56
2017-07-21T12:14:05.425Z,990.51
2017-07-21T12:15:05.464Z,990.48
2017-07-21T12:16:05.494Z,990.46
2017-07-21T12:17:05.529Z,990.51
2017-07-21T12:18:05.557Z,990.41
2017-07-21T12:19:05.593Z,990.4
2017-07-21T12:20:05.622Z,990.46
2017-07-21T12:21:05.660Z,990.29
2017-07-21T12:22:05.688Z,990.31
2017-07-21T12:23:05.720Z,990.32
2017-07-21T12:24:05.759Z,990.48
2017-07-21T12:25:05.790Z,990.28
2017-07-21T12:26:05.819Z,990.45
2017-07-21T12:27:05.860Z,990.46
2017-07-21T12:28:05.889Z,990.43
2017-07-21T12:29:05.920Z,990.41
2017-07-21T12:30:05.951Z,990.44
2017-07-21T12:31:05.986Z,990.44